sensor_id;sensor_type;location;lat;lon;timestamp;temperature;humidity
1614;DHT22;800;48.824;9.346;2023-03-09T00:00:50;15.60;70.90
1614;DHT22;800;48.824;9.346;2023-03-09T00:03:15;15.50;70.20
1614;DHT22;800;48.824;9.346;2023-03-09T00:05:42;15.60;69.80
1614;DHT22;800;48.824;9.346;2023-03-09T00:08:09;15.30;70.80
1614;DHT22;800;48.824;9.346;2023-03-09T00:10:37;15.40;70.90
1614;DHT22;800;48.824;9.346;2023-03-09T00:13:03;15.20;71.30
1614;DHT22;800;48.824;9.346;2023-03-09T00:15:29;15.10;72.70
1614;DHT22;800;48.824;9.346;2023-03-09T00:17:55;14.90;72.80
1614;DHT22;800;48.824;9.346;2023-03-09T00:20:21;14.80;73.50
1614;DHT22;800;48.824;9.346;2023-03-09T00:22:49;15.00;73.40
1614;DHT22;800;48.824;9.346;2023-03-09T00:25:16;15.00;72.80
1614;DHT22;800;48.824;9.346;2023-03-09T00:27:42;14.90;73.40
1614;DHT22;800;48.824;9.346;2023-03-09T00:30:09;14.90;74.10
1614;DHT22;800;48.824;9.346;2023-03-09T00:32:35;14.60;75.30
1614;DHT22;800;48.824;9.346;2023-03-09T00:35:01;14.40;75.70
1614;DHT22;800;48.824;9.346;2023-03-09T00:37:26;13.70;76.80
1614;DHT22;800;48.824;9.346;2023-03-09T00:39:52;13.70;78.20
1614;DHT22;800;48.824;9.346;2023-03-09T00:42:18;13.50;79.00
1614;DHT22;800;48.824;9.346;2023-03-09T00:44:43;13.70;80.30
1614;DHT22;800;48.824;9.346;2023-03-09T00:47:09;13.60;79.00
1614;DHT22;800;48.824;9.346;2023-03-09T00:49:34;13.70;80.00
1614;DHT22;800;48.824;9.346;2023-03-09T00:52:00;13.70;80.20
1614;DHT22;800;48.824;9.346;2023-03-09T00:54:25;14.00;80.00
1614;DHT22;800;48.824;9.346;2023-03-09T00:56:51;14.10;78.80
1614;DHT22;800;48.824;9.346;2023-03-09T00:59:16;14.30;78.70
1614;DHT22;800;48.824;9.346;2023-03-09T01:01:42;14.30;78.40
1614;DHT22;800;48.824;9.346;2023-03-09T01:04:08;14.40;78.80
1614;DHT22;800;48.824;9.346;2023-03-09T01:06:34;14.40;78.80
1614;DHT22;800;48.824;9.346;2023-03-09T01:08:59;14.60;78.20
1614;DHT22;800;48.824;9.346;2023-03-09T01:11:25;14.80;76.60
1614;DHT22;800;48.824;9.346;2023-03-09T01:13:52;14.90;75.60
1614;DHT22;800;48.824;9.346;2023-03-09T01:16:18;14.80;73.80
1614;DHT22;800;48.824;9.346;2023-03-09T01:18:43;14.90;74.50
1614;DHT22;800;48.824;9.346;2023-03-09T01:21:09;14.50;72.70
1614;DHT22;800;48.824;9.346;2023-03-09T01:23:37;14.50;74.10
1614;DHT22;800;48.824;9.346;2023-03-09T01:26:04;14.00;70.80
1614;DHT22;800;48.824;9.346;2023-03-09T01:28:30;14.00;72.10
1614;DHT22;800;48.824;9.346;2023-03-09T01:30:56;13.90;70.70
1614;DHT22;800;48.824;9.346;2023-03-09T01:33:21;13.90;70.70
1614;DHT22;800;48.824;9.346;2023-03-09T01:35:47;13.90;70.20
1614;DHT22;800;48.824;9.346;2023-03-09T01:38:13;13.90;69.50
1614;DHT22;800;48.824;9.346;2023-03-09T01:40:38;13.90;68.60
1614;DHT22;800;48.824;9.346;2023-03-09T01:43:34;13.90;68.50
1614;DHT22;800;48.824;9.346;2023-03-09T01:52:02;13.60;67.30
1614;DHT22;800;48.824;9.346;2023-03-09T01:57:48;13.40;66.80
1614;DHT22;800;48.824;9.346;2023-03-09T01:59:49;13.40;67.60
1614;DHT22;800;48.824;9.346;2023-03-09T02:02:15;13.40;67.70
1614;DHT22;800;48.824;9.346;2023-03-09T02:04:46;13.40;68.20
1614;DHT22;800;48.824;9.346;2023-03-09T02:07:13;13.30;68.00
1614;DHT22;800;48.824;9.346;2023-03-09T02:12:18;13.60;68.10
1614;DHT22;800;48.824;9.346;2023-03-09T02:14:44;13.80;67.30
1614;DHT22;800;48.824;9.346;2023-03-09T02:17:11;13.80;66.70
1614;DHT22;800;48.824;9.346;2023-03-09T02:19:47;13.70;66.10
1614;DHT22;800;48.824;9.346;2023-03-09T02:22:15;13.70;66.00
1614;DHT22;800;48.824;9.346;2023-03-09T02:24:53;13.60;66.10
1614;DHT22;800;48.824;9.346;2023-03-09T02:27:26;13.50;66.50
1614;DHT22;800;48.824;9.346;2023-03-09T02:29:53;13.50;66.60
1614;DHT22;800;48.824;9.346;2023-03-09T02:32:20;13.30;65.70
1614;DHT22;800;48.824;9.346;2023-03-09T02:34:46;13.30;66.30
1614;DHT22;800;48.824;9.346;2023-03-09T02:39:49;13.50;65.30
1614;DHT22;800;48.824;9.346;2023-03-09T02:42:16;13.60;64.90
1614;DHT22;800;48.824;9.346;2023-03-09T02:44:42;13.60;64.60
1614;DHT22;800;48.824;9.346;2023-03-09T02:47:11;13.60;63.50
1614;DHT22;800;48.824;9.346;2023-03-09T02:49:38;13.60;63.60
1614;DHT22;800;48.824;9.346;2023-03-09T02:52:04;13.50;62.70
1614;DHT22;800;48.824;9.346;2023-03-09T02:54:30;13.20;63.90
1614;DHT22;800;48.824;9.346;2023-03-09T02:56:55;13.10;64.30
1614;DHT22;800;48.824;9.346;2023-03-09T02:59:21;13.00;64.40
1614;DHT22;800;48.824;9.346;2023-03-09T03:01:47;13.00;64.50
1614;DHT22;800;48.824;9.346;2023-03-09T03:04:12;12.90;65.10
1614;DHT22;800;48.824;9.346;2023-03-09T03:06:38;13.20;65.20
1614;DHT22;800;48.824;9.346;2023-03-09T03:09:05;13.50;65.00
1614;DHT22;800;48.824;9.346;2023-03-09T03:11:31;13.20;64.40
1614;DHT22;800;48.824;9.346;2023-03-09T03:13:56;13.00;65.60
1614;DHT22;800;48.824;9.346;2023-03-09T03:16:22;13.00;67.70
1614;DHT22;800;48.824;9.346;2023-03-09T03:18:47;13.10;67.90
1614;DHT22;800;48.824;9.346;2023-03-09T03:21:13;13.10;67.90
1614;DHT22;800;48.824;9.346;2023-03-09T03:23:39;13.10;68.60
1614;DHT22;800;48.824;9.346;2023-03-09T03:26:08;13.10;70.10
1614;DHT22;800;48.824;9.346;2023-03-09T03:28:34;13.00;70.70
1614;DHT22;800;48.824;9.346;2023-03-09T03:31:00;13.20;70.90
1614;DHT22;800;48.824;9.346;2023-03-09T03:33:26;13.20;71.20
1614;DHT22;800;48.824;9.346;2023-03-09T03:35:51;13.10;71.70
1614;DHT22;800;48.824;9.346;2023-03-09T03:38:17;13.00;71.60
1614;DHT22;800;48.824;9.346;2023-03-09T03:40:42;13.20;72.70
1614;DHT22;800;48.824;9.346;2023-03-09T03:43:08;12.80;72.30
1614;DHT22;800;48.824;9.346;2023-03-09T03:45:34;12.60;71.90
1614;DHT22;800;48.824;9.346;2023-03-09T03:47:59;12.50;72.80
1614;DHT22;800;48.824;9.346;2023-03-09T03:50:25;12.50;72.20
1614;DHT22;800;48.824;9.346;2023-03-09T03:52:50;12.80;71.80
1614;DHT22;800;48.824;9.346;2023-03-09T03:55:16;12.90;70.40
1614;DHT22;800;48.824;9.346;2023-03-09T03:57:42;12.90;69.50
1614;DHT22;800;48.824;9.346;2023-03-09T04:00:07;13.00;69.20
1614;DHT22;800;48.824;9.346;2023-03-09T04:02:39;13.20;68.80
1614;DHT22;800;48.824;9.346;2023-03-09T04:05:06;13.30;67.70
1614;DHT22;800;48.824;9.346;2023-03-09T04:07:32;13.10;67.40
1614;DHT22;800;48.824;9.346;2023-03-09T04:09:58;13.00;67.70
1614;DHT22;800;48.824;9.346;2023-03-09T04:12:23;13.00;68.20
1614;DHT22;800;48.824;9.346;2023-03-09T04:14:49;12.80;67.60
1614;DHT22;800;48.824;9.346;2023-03-09T04:17:15;12.80;67.80
1614;DHT22;800;48.824;9.346;2023-03-09T04:19:40;12.80;67.90
1614;DHT22;800;48.824;9.346;2023-03-09T04:22:06;12.80;67.90
1614;DHT22;800;48.824;9.346;2023-03-09T04:24:34;12.80;68.00
1614;DHT22;800;48.824;9.346;2023-03-09T04:27:00;13.00;68.10
1614;DHT22;800;48.824;9.346;2023-03-09T04:29:25;13.00;68.00
1614;DHT22;800;48.824;9.346;2023-03-09T04:31:51;13.00;67.60
1614;DHT22;800;48.824;9.346;2023-03-09T04:34:17;13.00;68.30
1614;DHT22;800;48.824;9.346;2023-03-09T04:36:42;13.00;67.70
1614;DHT22;800;48.824;9.346;2023-03-09T04:39:08;12.90;67.80
1614;DHT22;800;48.824;9.346;2023-03-09T04:41:35;13.10;68.10
1614;DHT22;800;48.824;9.346;2023-03-09T04:44:01;13.00;67.10
1614;DHT22;800;48.824;9.346;2023-03-09T04:46:27;12.70;67.50
1614;DHT22;800;48.824;9.346;2023-03-09T04:48:52;12.60;68.70
1614;DHT22;800;48.824;9.346;2023-03-09T04:51:18;12.80;68.10
1614;DHT22;800;48.824;9.346;2023-03-09T04:53:44;12.70;68.00
1614;DHT22;800;48.824;9.346;2023-03-09T04:56:09;12.70;67.90
1614;DHT22;800;48.824;9.346;2023-03-09T04:58:35;12.90;66.80
1614;DHT22;800;48.824;9.346;2023-03-09T05:01:00;12.70;66.70
1614;DHT22;800;48.824;9.346;2023-03-09T05:03:27;13.00;66.50
1614;DHT22;800;48.824;9.346;2023-03-09T05:05:53;13.10;65.00
1614;DHT22;800;48.824;9.346;2023-03-09T05:08:19;12.70;64.50
1614;DHT22;800;48.824;9.346;2023-03-09T05:10:45;12.60;66.00
1614;DHT22;800;48.824;9.346;2023-03-09T05:13:10;12.80;65.80
1614;DHT22;800;48.824;9.346;2023-03-09T05:15:40;12.90;64.60
1614;DHT22;800;48.824;9.346;2023-03-09T05:18:07;13.00;64.20
1614;DHT22;800;48.824;9.346;2023-03-09T05:20:33;13.00;64.00
1614;DHT22;800;48.824;9.346;2023-03-09T05:22:59;12.80;63.40
1614;DHT22;800;48.824;9.346;2023-03-09T05:25:25;12.90;63.80
1614;DHT22;800;48.824;9.346;2023-03-09T05:27:51;12.80;63.60
1614;DHT22;800;48.824;9.346;2023-03-09T05:30:17;12.70;63.50
1614;DHT22;800;48.824;9.346;2023-03-09T05:32:43;12.70;64.10
1614;DHT22;800;48.824;9.346;2023-03-09T05:35:09;12.80;63.90
1614;DHT22;800;48.824;9.346;2023-03-09T05:37:35;12.70;63.30
1614;DHT22;800;48.824;9.346;2023-03-09T05:40:01;12.80;62.80
1614;DHT22;800;48.824;9.346;2023-03-09T05:42:26;12.70;63.20
1614;DHT22;800;48.824;9.346;2023-03-09T05:44:52;12.90;63.60
1614;DHT22;800;48.824;9.346;2023-03-09T05:47:18;13.10;63.50
1614;DHT22;800;48.824;9.346;2023-03-09T05:49:43;13.10;62.80
1614;DHT22;800;48.824;9.346;2023-03-09T05:52:09;13.30;62.60
1614;DHT22;800;48.824;9.346;2023-03-09T05:54:35;13.30;62.10
1614;DHT22;800;48.824;9.346;2023-03-09T05:57:01;13.30;62.40
1614;DHT22;800;48.824;9.346;2023-03-09T05:59:26;13.20;62.30
1614;DHT22;800;48.824;9.346;2023-03-09T06:01:52;13.20;62.70
1614;DHT22;800;48.824;9.346;2023-03-09T06:04:18;13.30;62.50
1614;DHT22;800;48.824;9.346;2023-03-09T06:06:43;13.50;61.90
1614;DHT22;800;48.824;9.346;2023-03-09T06:09:09;13.50;61.80
1614;DHT22;800;48.824;9.346;2023-03-09T06:11:34;13.70;61.40
1614;DHT22;800;48.824;9.346;2023-03-09T06:14:00;13.90;60.80
1614;DHT22;800;48.824;9.346;2023-03-09T06:16:26;13.70;60.60
1614;DHT22;800;48.824;9.346;2023-03-09T06:18:54;14.00;60.40
1614;DHT22;800;48.824;9.346;2023-03-09T06:21:20;14.20;59.80
1614;DHT22;800;48.824;9.346;2023-03-09T06:23:46;14.20;59.20
1614;DHT22;800;48.824;9.346;2023-03-09T06:26:12;14.00;59.70
1614;DHT22;800;48.824;9.346;2023-03-09T06:28:38;14.20;59.70
1614;DHT22;800;48.824;9.346;2023-03-09T06:31:08;14.10;59.50
1614;DHT22;800;48.824;9.346;2023-03-09T06:33:37;14.20;59.50
1614;DHT22;800;48.824;9.346;2023-03-09T06:36:03;14.30;59.00
1614;DHT22;800;48.824;9.346;2023-03-09T06:38:29;14.60;58.70
1614;DHT22;800;48.824;9.346;2023-03-09T06:40:54;14.70;58.50
1614;DHT22;800;48.824;9.346;2023-03-09T06:43:21;14.60;58.20
1614;DHT22;800;48.824;9.346;2023-03-09T06:45:47;14.60;58.10
1614;DHT22;800;48.824;9.346;2023-03-09T06:48:13;14.70;58.00
1614;DHT22;800;48.824;9.346;2023-03-09T06:50:39;14.70;57.90
1614;DHT22;800;48.824;9.346;2023-03-09T06:53:04;14.70;57.90
1614;DHT22;800;48.824;9.346;2023-03-09T06:55:30;14.90;57.80
1614;DHT22;800;48.824;9.346;2023-03-09T06:57:56;14.70;56.80
1614;DHT22;800;48.824;9.346;2023-03-09T07:00:22;14.50;57.50
1614;DHT22;800;48.824;9.346;2023-03-09T07:02:47;14.60;57.90
1614;DHT22;800;48.824;9.346;2023-03-09T07:05:13;14.50;57.30
1614;DHT22;800;48.824;9.346;2023-03-09T07:07:38;14.50;57.80
1614;DHT22;800;48.824;9.346;2023-03-09T07:10:07;14.20;57.80
1614;DHT22;800;48.824;9.346;2023-03-09T07:12:32;14.00;58.00
1614;DHT22;800;48.824;9.346;2023-03-09T07:14:58;14.00;58.50
1614;DHT22;800;48.824;9.346;2023-03-09T07:17:24;14.20;58.60
1614;DHT22;800;48.824;9.346;2023-03-09T07:19:50;14.10;58.30
1614;DHT22;800;48.824;9.346;2023-03-09T07:22:17;14.00;58.60
1614;DHT22;800;48.824;9.346;2023-03-09T07:24:43;14.00;59.00
1614;DHT22;800;48.824;9.346;2023-03-09T07:27:08;14.00;58.50
1614;DHT22;800;48.824;9.346;2023-03-09T07:29:34;13.90;57.40
1614;DHT22;800;48.824;9.346;2023-03-09T07:32:01;13.90;57.80
1614;DHT22;800;48.824;9.346;2023-03-09T07:34:28;14.10;57.60
1614;DHT22;800;48.824;9.346;2023-03-09T07:36:53;14.20;57.80
1614;DHT22;800;48.824;9.346;2023-03-09T07:39:19;14.20;57.80
1614;DHT22;800;48.824;9.346;2023-03-09T07:41:44;14.30;58.60
1614;DHT22;800;48.824;9.346;2023-03-09T07:44:10;14.40;57.50
1614;DHT22;800;48.824;9.346;2023-03-09T07:46:36;14.40;57.30
1614;DHT22;800;48.824;9.346;2023-03-09T07:49:01;14.60;57.50
1614;DHT22;800;48.824;9.346;2023-03-09T07:51:28;14.50;56.70
1614;DHT22;800;48.824;9.346;2023-03-09T07:53:55;14.50;56.60
1614;DHT22;800;48.824;9.346;2023-03-09T07:56:21;14.40;56.60
1614;DHT22;800;48.824;9.346;2023-03-09T07:58:46;14.20;56.40
1614;DHT22;800;48.824;9.346;2023-03-09T08:01:16;14.40;56.80
1614;DHT22;800;48.824;9.346;2023-03-09T08:03:43;14.30;56.50
1614;DHT22;800;48.824;9.346;2023-03-09T08:06:09;14.20;57.00
1614;DHT22;800;48.824;9.346;2023-03-09T08:08:35;14.30;57.00
1614;DHT22;800;48.824;9.346;2023-03-09T08:11:02;14.10;56.70
1614;DHT22;800;48.824;9.346;2023-03-09T08:13:29;14.10;57.00
1614;DHT22;800;48.824;9.346;2023-03-09T08:15:55;14.10;57.10
1614;DHT22;800;48.824;9.346;2023-03-09T08:18:20;14.20;57.20
1614;DHT22;800;48.824;9.346;2023-03-09T08:20:46;14.20;57.50
1614;DHT22;800;48.824;9.346;2023-03-09T08:23:12;14.30;57.10
1614;DHT22;800;48.824;9.346;2023-03-09T08:25:37;14.00;56.90
1614;DHT22;800;48.824;9.346;2023-03-09T08:28:03;14.10;57.60
1614;DHT22;800;48.824;9.346;2023-03-09T08:30:30;14.00;57.30
1614;DHT22;800;48.824;9.346;2023-03-09T08:32:57;14.10;57.30
1614;DHT22;800;48.824;9.346;2023-03-09T08:35:26;14.20;57.30
1614;DHT22;800;48.824;9.346;2023-03-09T08:37:52;14.20;57.10
1614;DHT22;800;48.824;9.346;2023-03-09T08:40:18;14.20;56.90
1614;DHT22;800;48.824;9.346;2023-03-09T08:42:44;14.50;57.00
1614;DHT22;800;48.824;9.346;2023-03-09T08:45:10;14.40;56.50
1614;DHT22;800;48.824;9.346;2023-03-09T08:47:36;14.30;56.40
1614;DHT22;800;48.824;9.346;2023-03-09T08:50:03;14.40;56.70
1614;DHT22;800;48.824;9.346;2023-03-09T08:52:29;14.30;56.70
1614;DHT22;800;48.824;9.346;2023-03-09T08:55:00;14.40;57.10
1614;DHT22;800;48.824;9.346;2023-03-09T08:57:27;14.10;56.30
1614;DHT22;800;48.824;9.346;2023-03-09T08:59:52;14.20;56.90
1614;DHT22;800;48.824;9.346;2023-03-09T09:02:18;14.40;57.10
1614;DHT22;800;48.824;9.346;2023-03-09T09:04:44;14.80;56.80
1614;DHT22;800;48.824;9.346;2023-03-09T09:07:14;14.60;56.20
1614;DHT22;800;48.824;9.346;2023-03-09T09:09:41;14.60;56.30
1614;DHT22;800;48.824;9.346;2023-03-09T09:12:08;14.60;56.60
1614;DHT22;800;48.824;9.346;2023-03-09T09:14:34;14.60;56.80
1614;DHT22;800;48.824;9.346;2023-03-09T09:17:00;14.70;57.40
1614;DHT22;800;48.824;9.346;2023-03-09T09:19:26;14.40;57.10
1614;DHT22;800;48.824;9.346;2023-03-09T09:21:52;14.50;57.90
1614;DHT22;800;48.824;9.346;2023-03-09T09:24:20;14.70;58.30
1614;DHT22;800;48.824;9.346;2023-03-09T09:26:46;14.50;57.90
1614;DHT22;800;48.824;9.346;2023-03-09T09:29:13;14.40;58.80
1614;DHT22;800;48.824;9.346;2023-03-09T09:31:39;14.60;59.80
1614;DHT22;800;48.824;9.346;2023-03-09T09:34:05;14.80;59.40
1614;DHT22;800;48.824;9.346;2023-03-09T09:36:31;14.80;59.70
1614;DHT22;800;48.824;9.346;2023-03-09T09:38:59;14.60;59.20
1614;DHT22;800;48.824;9.346;2023-03-09T09:41:49;14.50;59.70
1614;DHT22;800;48.824;9.346;2023-03-09T09:44:27;14.30;59.70
1614;DHT22;800;48.824;9.346;2023-03-09T09:46:56;14.50;60.40
1614;DHT22;800;48.824;9.346;2023-03-09T09:49:25;14.40;60.00
1614;DHT22;800;48.824;9.346;2023-03-09T09:54:44;14.80;59.40
1614;DHT22;800;48.824;9.346;2023-03-09T10:05:26;14.70;58.70
1614;DHT22;800;48.824;9.346;2023-03-09T10:07:54;14.60;58.70
1614;DHT22;800;48.824;9.346;2023-03-09T10:10:24;14.40;58.70
1614;DHT22;800;48.824;9.346;2023-03-09T10:12:50;14.70;59.20
1614;DHT22;800;48.824;9.346;2023-03-09T10:15:33;14.70;58.80
1614;DHT22;800;48.824;9.346;2023-03-09T10:18:03;14.80;58.80
1614;DHT22;800;48.824;9.346;2023-03-09T10:20:58;15.00;58.70
1614;DHT22;800;48.824;9.346;2023-03-09T10:23:29;15.00;58.20
1614;DHT22;800;48.824;9.346;2023-03-09T10:26:27;14.90;58.20
1614;DHT22;800;48.824;9.346;2023-03-09T10:28:58;14.80;57.90
1614;DHT22;800;48.824;9.346;2023-03-09T10:34:20;14.80;58.60
1614;DHT22;800;48.824;9.346;2023-03-09T10:37:03;14.80;58.50
1614;DHT22;800;48.824;9.346;2023-03-09T10:39:40;14.90;58.00
1614;DHT22;800;48.824;9.346;2023-03-09T10:45:14;14.70;58.10
1614;DHT22;800;48.824;9.346;2023-03-09T10:50:25;14.90;59.00
1614;DHT22;800;48.824;9.346;2023-03-09T10:52:52;15.00;58.00
1614;DHT22;800;48.824;9.346;2023-03-09T10:55:33;15.30;57.40
1614;DHT22;800;48.824;9.346;2023-03-09T10:58:02;15.40;56.40
1614;DHT22;800;48.824;9.346;2023-03-09T11:00:31;15.50;55.70
1614;DHT22;800;48.824;9.346;2023-03-09T11:02:58;15.40;55.50
1614;DHT22;800;48.824;9.346;2023-03-09T11:05:30;15.40;55.80
1614;DHT22;800;48.824;9.346;2023-03-09T11:07:58;15.70;55.30
1614;DHT22;800;48.824;9.346;2023-03-09T11:10:29;15.70;54.40
1614;DHT22;800;48.824;9.346;2023-03-09T11:12:56;16.00;54.00
1614;DHT22;800;48.824;9.346;2023-03-09T11:15:27;16.20;53.80
1614;DHT22;800;48.824;9.346;2023-03-09T11:17:54;16.50;52.50
1614;DHT22;800;48.824;9.346;2023-03-09T11:28:18;16.60;51.40
1614;DHT22;800;48.824;9.346;2023-03-09T11:30:49;16.70;52.00
1614;DHT22;800;48.824;9.346;2023-03-09T11:33:18;16.90;51.80
1614;DHT22;800;48.824;9.346;2023-03-09T11:35:47;17.00;51.00
1614;DHT22;800;48.824;9.346;2023-03-09T11:38:14;17.30;50.90
1614;DHT22;800;48.824;9.346;2023-03-09T11:40:40;17.10;49.50
1614;DHT22;800;48.824;9.346;2023-03-09T11:43:27;17.10;50.60
1614;DHT22;800;48.824;9.346;2023-03-09T11:45:57;17.30;50.00
1614;DHT22;800;48.824;9.346;2023-03-09T11:48:47;17.60;50.00
1614;DHT22;800;48.824;9.346;2023-03-09T11:51:18;17.60;49.40
1614;DHT22;800;48.824;9.346;2023-03-09T11:54:01;17.60;48.90
1614;DHT22;800;48.824;9.346;2023-03-09T11:56:35;17.60;48.70
1614;DHT22;800;48.824;9.346;2023-03-09T11:59:07;17.60;48.40
1614;DHT22;800;48.824;9.346;2023-03-09T12:01:48;17.60;48.60
1614;DHT22;800;48.824;9.346;2023-03-09T12:04:16;17.60;48.30
1614;DHT22;800;48.824;9.346;2023-03-09T12:06:44;17.50;47.90
1614;DHT22;800;48.824;9.346;2023-03-09T12:09:33;17.70;48.40
1614;DHT22;800;48.824;9.346;2023-03-09T12:12:21;17.90;48.10
1614;DHT22;800;48.824;9.346;2023-03-09T12:14:58;18.10;48.30
1614;DHT22;800;48.824;9.346;2023-03-09T12:17:30;18.10;47.60
1614;DHT22;800;48.824;9.346;2023-03-09T12:19:57;17.90;47.30
1614;DHT22;800;48.824;9.346;2023-03-09T12:22:36;17.50;47.70
1614;DHT22;800;48.824;9.346;2023-03-09T12:25:05;17.30;47.90
1614;DHT22;800;48.824;9.346;2023-03-09T12:27:34;17.20;47.80
1614;DHT22;800;48.824;9.346;2023-03-09T12:34:57;17.00;48.90
1614;DHT22;800;48.824;9.346;2023-03-09T12:42:55;17.50;48.00
1614;DHT22;800;48.824;9.346;2023-03-09T13:01:10;17.70;46.50
1614;DHT22;800;48.824;9.346;2023-03-09T13:03:48;17.70;47.10
1614;DHT22;800;48.824;9.346;2023-03-09T13:06:35;17.70;47.00
1614;DHT22;800;48.824;9.346;2023-03-09T13:09:22;17.70;46.90
1614;DHT22;800;48.824;9.346;2023-03-09T13:16:59;18.10;46.50
1614;DHT22;800;48.824;9.346;2023-03-09T13:24:27;17.60;47.50
1614;DHT22;800;48.824;9.346;2023-03-09T13:27:01;17.40;47.70
1614;DHT22;800;48.824;9.346;2023-03-09T13:29:29;17.60;47.90
1614;DHT22;800;48.824;9.346;2023-03-09T13:31:56;17.10;47.80
1614;DHT22;800;48.824;9.346;2023-03-09T13:34:32;16.90;48.30
1614;DHT22;800;48.824;9.346;2023-03-09T13:37:04;17.10;49.00
1614;DHT22;800;48.824;9.346;2023-03-09T13:39:31;17.00;48.20
1614;DHT22;800;48.824;9.346;2023-03-09T13:42:03;16.80;48.20
1614;DHT22;800;48.824;9.346;2023-03-09T13:44:30;16.70;48.70
1614;DHT22;800;48.824;9.346;2023-03-09T13:46:57;16.70;49.10
1614;DHT22;800;48.824;9.346;2023-03-09T13:49:35;17.00;49.00
1614;DHT22;800;48.824;9.346;2023-03-09T13:52:03;17.10;48.70
1614;DHT22;800;48.824;9.346;2023-03-09T13:54:32;17.00;48.90
1614;DHT22;800;48.824;9.346;2023-03-09T13:57:11;17.10;49.20
1614;DHT22;800;48.824;9.346;2023-03-09T14:02:11;17.20;48.70
1614;DHT22;800;48.824;9.346;2023-03-09T14:05:00;17.00;48.70
1614;DHT22;800;48.824;9.346;2023-03-09T14:07:33;16.80;49.80
1614;DHT22;800;48.824;9.346;2023-03-09T14:10:03;16.40;50.90
1614;DHT22;800;48.824;9.346;2023-03-09T14:12:37;16.10;52.70
1614;DHT22;800;48.824;9.346;2023-03-09T14:15:06;15.80;55.40
1614;DHT22;800;48.824;9.346;2023-03-09T14:17:33;15.90;56.20
1614;DHT22;800;48.824;9.346;2023-03-09T14:20:01;16.20;56.30
1614;DHT22;800;48.824;9.346;2023-03-09T14:22:29;16.60;55.30
1614;DHT22;800;48.824;9.346;2023-03-09T14:24:57;16.80;54.30
1614;DHT22;800;48.824;9.346;2023-03-09T14:27:35;17.00;53.90
1614;DHT22;800;48.824;9.346;2023-03-09T14:30:41;17.20;53.40
1614;DHT22;800;48.824;9.346;2023-03-09T14:33:26;17.40;52.50
1614;DHT22;800;48.824;9.346;2023-03-09T14:36:16;17.50;51.80
1614;DHT22;800;48.824;9.346;2023-03-09T14:39:04;17.40;51.40
1614;DHT22;800;48.824;9.346;2023-03-09T14:41:36;17.50;51.40
1614;DHT22;800;48.824;9.346;2023-03-09T14:44:02;17.20;51.00
1614;DHT22;800;48.824;9.346;2023-03-09T14:46:29;17.30;51.30
1614;DHT22;800;48.824;9.346;2023-03-09T14:48:59;17.20;50.50
1614;DHT22;800;48.824;9.346;2023-03-09T14:51:35;17.00;50.70
1614;DHT22;800;48.824;9.346;2023-03-09T14:54:09;17.20;50.90
1614;DHT22;800;48.824;9.346;2023-03-09T14:56:36;17.30;51.00
1614;DHT22;800;48.824;9.346;2023-03-09T14:59:28;17.40;50.30
1614;DHT22;800;48.824;9.346;2023-03-09T15:01:56;17.20;50.20
1614;DHT22;800;48.824;9.346;2023-03-09T15:04:24;17.10;50.40
1614;DHT22;800;48.824;9.346;2023-03-09T15:06:50;17.00;50.30
1614;DHT22;800;48.824;9.346;2023-03-09T15:09:17;16.80;50.10
1614;DHT22;800;48.824;9.346;2023-03-09T15:11:44;16.80;50.90
1614;DHT22;800;48.824;9.346;2023-03-09T15:14:37;16.90;50.30
1614;DHT22;800;48.824;9.346;2023-03-09T15:17:02;17.00;50.70
1614;DHT22;800;48.824;9.346;2023-03-09T15:19:29;17.20;50.20
1614;DHT22;800;48.824;9.346;2023-03-09T15:21:55;17.20;50.00
1614;DHT22;800;48.824;9.346;2023-03-09T15:24:23;17.30;50.00
1614;DHT22;800;48.824;9.346;2023-03-09T15:26:49;17.30;49.90
1614;DHT22;800;48.824;9.346;2023-03-09T15:29:15;17.20;49.60
1614;DHT22;800;48.824;9.346;2023-03-09T15:31:41;17.30;49.60
1614;DHT22;800;48.824;9.346;2023-03-09T15:34:06;17.10;49.40
1614;DHT22;800;48.824;9.346;2023-03-09T15:36:32;16.90;49.60
1614;DHT22;800;48.824;9.346;2023-03-09T15:38:57;17.00;50.20
1614;DHT22;800;48.824;9.346;2023-03-09T15:41:23;17.10;50.10
1614;DHT22;800;48.824;9.346;2023-03-09T15:43:49;17.10;49.80
1614;DHT22;800;48.824;9.346;2023-03-09T15:46:14;17.10;50.00
1614;DHT22;800;48.824;9.346;2023-03-09T15:48:41;17.10;49.80
1614;DHT22;800;48.824;9.346;2023-03-09T15:51:07;17.00;49.70
1614;DHT22;800;48.824;9.346;2023-03-09T15:53:32;17.00;49.70
1614;DHT22;800;48.824;9.346;2023-03-09T15:56:01;16.90;49.80
1614;DHT22;800;48.824;9.346;2023-03-09T15:58:27;16.70;49.40
1614;DHT22;800;48.824;9.346;2023-03-09T16:00:58;16.70;49.70
1614;DHT22;800;48.824;9.346;2023-03-09T16:03:23;16.60;50.20
1614;DHT22;800;48.824;9.346;2023-03-09T16:05:49;16.60;50.00
1614;DHT22;800;48.824;9.346;2023-03-09T16:08:14;16.80;49.80
1614;DHT22;800;48.824;9.346;2023-03-09T16:10:40;17.00;49.60
1614;DHT22;800;48.824;9.346;2023-03-09T16:13:05;17.10;49.00
1614;DHT22;800;48.824;9.346;2023-03-09T16:15:31;17.10;48.80
1614;DHT22;800;48.824;9.346;2023-03-09T16:17:57;17.00;48.80
1614;DHT22;800;48.824;9.346;2023-03-09T16:20:22;17.00;48.90
1614;DHT22;800;48.824;9.346;2023-03-09T16:22:49;17.10;48.90
1614;DHT22;800;48.824;9.346;2023-03-09T16:25:16;17.10;48.10
1614;DHT22;800;48.824;9.346;2023-03-09T16:27:42;17.00;48.60
1614;DHT22;800;48.824;9.346;2023-03-09T16:30:09;17.20;48.50
1614;DHT22;800;48.824;9.346;2023-03-09T16:32:35;17.20;48.20
1614;DHT22;800;48.824;9.346;2023-03-09T16:35:09;16.90;48.30
1614;DHT22;800;48.824;9.346;2023-03-09T16:37:35;17.10;48.50
1614;DHT22;800;48.824;9.346;2023-03-09T16:40:01;17.30;48.60
1614;DHT22;800;48.824;9.346;2023-03-09T16:42:28;17.40;48.10
1614;DHT22;800;48.824;9.346;2023-03-09T16:44:55;17.40;47.80
1614;DHT22;800;48.824;9.346;2023-03-09T16:47:21;17.70;47.80
1614;DHT22;800;48.824;9.346;2023-03-09T16:49:48;17.60;47.20
1614;DHT22;800;48.824;9.346;2023-03-09T16:52:14;17.70;47.00
1614;DHT22;800;48.824;9.346;2023-03-09T16:54:39;17.70;46.90
1614;DHT22;800;48.824;9.346;2023-03-09T16:57:05;17.70;46.90
1614;DHT22;800;48.824;9.346;2023-03-09T16:59:31;17.60;46.60
1614;DHT22;800;48.824;9.346;2023-03-09T17:01:57;17.40;46.40
1614;DHT22;800;48.824;9.346;2023-03-09T17:04:23;17.30;46.40
1614;DHT22;800;48.824;9.346;2023-03-09T17:06:49;17.40;46.30
1614;DHT22;800;48.824;9.346;2023-03-09T17:09:15;17.40;46.10
1614;DHT22;800;48.824;9.346;2023-03-09T17:11:41;17.50;45.70
1614;DHT22;800;48.824;9.346;2023-03-09T17:14:07;17.50;45.60
1614;DHT22;800;48.824;9.346;2023-03-09T17:16:36;17.40;45.40
1614;DHT22;800;48.824;9.346;2023-03-09T17:19:02;17.50;45.40
1614;DHT22;800;48.824;9.346;2023-03-09T17:21:28;17.10;45.10
1614;DHT22;800;48.824;9.346;2023-03-09T17:23:54;17.10;45.70
1614;DHT22;800;48.824;9.346;2023-03-09T17:26:19;17.20;45.70
1614;DHT22;800;48.824;9.346;2023-03-09T17:28:46;17.00;45.80
1614;DHT22;800;48.824;9.346;2023-03-09T17:31:14;17.10;46.00
1614;DHT22;800;48.824;9.346;2023-03-09T17:33:40;17.30;45.50
1614;DHT22;800;48.824;9.346;2023-03-09T17:36:06;17.40;45.50
1614;DHT22;800;48.824;9.346;2023-03-09T17:38:32;17.40;45.40
1614;DHT22;800;48.824;9.346;2023-03-09T17:40:57;17.50;45.20
1614;DHT22;800;48.824;9.346;2023-03-09T17:43:25;17.60;45.10